createdAt,value
2023-03-20T00:00:46.688Z,101156.91
2023-03-20T00:03:23.197Z,101151.19
2023-03-20T00:05:54.006Z,101145.45
2023-03-20T00:08:27.360Z,101145.39
2023-03-20T00:10:59.676Z,101143.17
2023-03-20T00:13:30.612Z,101143.55
2023-03-20T00:16:01.694Z,101138.66
2023-03-20T00:18:32.547Z,101132.41
2023-03-20T00:21:03.376Z,101124.52
2023-03-20T00:23:34.224Z,101124.05
2023-03-20T00:26:05.061Z,101122.79
2023-03-20T00:28:40.862Z,101118.73
2023-03-20T00:31:16.987Z,101115.23
2023-03-20T00:33:47.968Z,101113.34
2023-03-20T00:36:18.710Z,101113.07
2023-03-20T00:38:49.368Z,101108.86
2023-03-20T00:41:24.695Z,101109.69
2023-03-20T00:43:56.549Z,101107.27
2023-03-20T00:46:27.383Z,101102.21
2023-03-20T00:48:58.128Z,101100.92
2023-03-20T00:51:28.738Z,101102.98
2023-03-20T00:53:59.720Z,101103.52
2023-03-20T00:56:32.343Z,101099.44
2023-03-20T00:59:03.622Z,101096.44
2023-03-20T01:01:34.371Z,101092.05
2023-03-20T01:04:07.650Z,101090.99
2023-03-20T01:06:38.472Z,101087.88
2023-03-20T01:09:09.492Z,101085.20
2023-03-20T01:11:40.447Z,101082.15
2023-03-20T01:14:14.651Z,101079.79
2023-03-20T01:16:45.789Z,101076.06
2023-03-20T01:19:16.949Z,101078.90
2023-03-20T01:21:47.902Z,101080.68
2023-03-20T01:24:18.768Z,101081.05
2023-03-20T01:26:51.806Z,101078.35
2023-03-20T01:29:23.199Z,101074.83
2023-03-20T01:31:54.178Z,101074.27
2023-03-20T01:34:25.055Z,101068.94
2023-03-20T01:36:56.247Z,101067.33
2023-03-20T01:39:29.009Z,101067.42
2023-03-20T01:41:59.833Z,101069.47
2023-03-20T01:44:31.639Z,101065.22
2023-03-20T01:47:02.929Z,101064.34
2023-03-20T01:49:50.603Z,101061.20
2023-03-20T01:52:21.552Z,101061.98
2023-03-20T01:54:52.915Z,101058.70
2023-03-20T01:57:23.866Z,101053.36
2023-03-20T01:59:55.523Z,101055.19
2023-03-20T02:02:27.138Z,101055.67
2023-03-20T02:04:59.077Z,101055.85
2023-03-20T02:07:29.840Z,101055.75
2023-03-20T02:10:00.833Z,101059.39
2023-03-20T02:12:31.828Z,101062.80
2023-03-20T02:15:02.702Z,101062.77
2023-03-20T02:17:33.482Z,101064.02
2023-03-20T02:20:06.041Z,101057.19
2023-03-20T02:22:49.189Z,101060.59
2023-03-20T02:25:39.701Z,101056.23
2023-03-20T02:28:25.499Z,101059.83
2023-03-20T02:31:00.142Z,101061.38
2023-03-20T02:33:47.062Z,101062.37
2023-03-20T02:36:22.329Z,101057.89
2023-03-20T02:38:56.326Z,101055.88
2023-03-20T02:41:28.220Z,101053.45
2023-03-20T02:44:02.275Z,101050.48
2023-03-20T02:46:36.016Z,101048.17
2023-03-20T02:49:10.188Z,101054.21
2023-03-20T02:51:41.459Z,101056.19
2023-03-20T02:54:14.763Z,101054.32
2023-03-20T02:56:49.439Z,101054.23
2023-03-20T02:59:21.461Z,101055.73
2023-03-20T03:01:53.414Z,101056.39
2023-03-20T03:04:25.233Z,101056.01
2023-03-20T03:06:56.153Z,101061.76
2023-03-20T03:09:27.468Z,101062.74
2023-03-20T03:11:58.918Z,101061.02
2023-03-20T03:14:30.782Z,101055.20
2023-03-20T03:17:01.546Z,101057.03
2023-03-20T03:19:32.114Z,101056.81
2023-03-20T03:22:02.982Z,101055.96
2023-03-20T03:24:40.873Z,101050.27
2023-03-20T03:27:14.295Z,101052.38
2023-03-20T03:29:45.036Z,101052.64
2023-03-20T03:32:23.208Z,101054.36
2023-03-20T03:34:53.982Z,101055.64
2023-03-20T03:37:27.913Z,101062.73
2023-03-20T03:40:00.184Z,101057.35
2023-03-20T03:42:31.947Z,101062.31
2023-03-20T03:45:05.012Z,101057.58
2023-03-20T03:47:36.358Z,101060.86
2023-03-20T03:50:07.976Z,101059.36
2023-03-20T03:52:38.869Z,101057.83
2023-03-20T03:55:10.272Z,101059.42
2023-03-20T03:57:41.700Z,101056.70
2023-03-20T04:00:13.269Z,101058.45
2023-03-20T04:02:44.591Z,101055.45
2023-03-20T04:05:15.487Z,101053.48
2023-03-20T04:07:47.478Z,101048.09
2023-03-20T04:10:18.426Z,101047.83
2023-03-20T04:12:49.289Z,101046.02
2023-03-20T04:15:20.420Z,101052.26
2023-03-20T04:17:51.279Z,101050.79
2023-03-20T04:20:22.043Z,101054.30
2023-03-20T04:22:53.246Z,101058.10
2023-03-20T04:25:24.396Z,101055.02
2023-03-20T04:27:55.709Z,101056.10
2023-03-20T04:30:26.521Z,101054.77
2023-03-20T04:32:57.444Z,101058.39
2023-03-20T04:35:28.462Z,101059.39
2023-03-20T04:37:59.295Z,101062.00
2023-03-20T04:40:31.650Z,101065.95
2023-03-20T04:43:02.324Z,101072.05
2023-03-20T04:45:33.172Z,101073.36
2023-03-20T04:48:04.096Z,101078.39
2023-03-20T04:50:35.002Z,101081.45
2023-03-20T04:53:05.889Z,101083.26
2023-03-20T04:55:36.791Z,101079.67
2023-03-20T04:58:07.975Z,101083.73
2023-03-20T05:00:39.017Z,101085.64
2023-03-20T05:03:10.162Z,101090.14
2023-03-20T05:05:41.321Z,101088.09
2023-03-20T05:08:12.226Z,101083.95
2023-03-20T05:10:42.822Z,101081.50
2023-03-20T05:13:13.624Z,101082.63
2023-03-20T05:15:44.464Z,101089.89
2023-03-20T05:18:15.402Z,101086.42
2023-03-20T05:20:46.532Z,101085.45
2023-03-20T05:23:17.367Z,101085.30
2023-03-20T05:25:48.002Z,101085.89
2023-03-20T05:28:18.602Z,101087.14
2023-03-20T05:30:49.217Z,101091.45
2023-03-20T05:33:20.030Z,101095.38
2023-03-20T05:35:51.352Z,101097.68
2023-03-20T05:38:22.876Z,101103.76
2023-03-20T05:40:53.773Z,101106.30
2023-03-20T05:43:24.481Z,101107.87
2023-03-20T05:45:55.395Z,101106.46
2023-03-20T05:48:26.153Z,101102.80
2023-03-20T05:50:56.960Z,101105.16
2023-03-20T05:53:27.722Z,101104.33
2023-03-20T05:55:58.486Z,101101.25
2023-03-20T05:58:29.228Z,101096.18
2023-03-20T06:01:00.191Z,101099.65
2023-03-20T06:03:31.309Z,101091.61
2023-03-20T06:06:02.260Z,101089.70
2023-03-20T06:08:33.009Z,101090.47
2023-03-20T06:11:04.325Z,101091.27
2023-03-20T06:13:35.252Z,101088.98
2023-03-20T06:16:06.454Z,101086.39
2023-03-20T06:18:39.311Z,101088.42
2023-03-20T06:21:11.933Z,101092.66
2023-03-20T06:23:43.999Z,101092.33
2023-03-20T06:26:15.814Z,101092.65
2023-03-20T06:28:46.609Z,101093.41
2023-03-20T06:31:17.453Z,101093.48
2023-03-20T06:33:48.784Z,101092.45
2023-03-20T06:36:19.562Z,101096.85
2023-03-20T06:38:50.737Z,101097.77
2023-03-20T06:41:33.791Z,101100.67
2023-03-20T06:44:05.349Z,101100.40
2023-03-20T06:46:36.323Z,101101.33
2023-03-20T06:49:07.549Z,101105.30
2023-03-20T06:51:39.206Z,101106.73
2023-03-20T06:54:09.970Z,101106.67
2023-03-20T06:56:40.829Z,101106.65
2023-03-20T06:59:11.497Z,101104.20
2023-03-20T07:01:42.500Z,101111.80
2023-03-20T07:04:15.037Z,101115.86
2023-03-20T07:06:47.019Z,101117.25
2023-03-20T07:09:18.909Z,101115.41
2023-03-20T07:11:50.009Z,101112.23
2023-03-20T07:14:23.032Z,101112.16
2023-03-20T07:16:55.130Z,101112.38
2023-03-20T07:19:27.029Z,101114.82
2023-03-20T07:21:59.839Z,101116.73
2023-03-20T07:24:33.021Z,101115.10
2023-03-20T07:27:04.257Z,101115.07
2023-03-20T07:29:35.023Z,101115.89
2023-03-20T07:32:06.880Z,101114.00
2023-03-20T07:34:38.995Z,101106.94
2023-03-20T07:37:10.590Z,101101.67
2023-03-20T07:39:42.290Z,101103.66
2023-03-20T07:42:14.326Z,101104.11
2023-03-20T07:44:46.021Z,101106.33
2023-03-20T07:47:17.292Z,101111.67
2023-03-20T07:49:49.010Z,101112.95
2023-03-20T07:52:20.062Z,101114.91
2023-03-20T07:54:52.019Z,101109.43
2023-03-20T07:57:23.061Z,101103.02
2023-03-20T07:59:54.336Z,101101.90
2023-03-20T08:09:27.252Z,101097.35
2023-03-20T08:11:58.155Z,101094.75
2023-03-20T08:14:29.223Z,101094.56
2023-03-20T08:17:13.564Z,101097.44
2023-03-20T08:19:45.457Z,101099.00
2023-03-20T08:22:16.287Z,101096.48
2023-03-20T08:24:47.390Z,101094.16
2023-03-20T08:27:18.587Z,101097.32
2023-03-20T08:29:49.412Z,101099.88
2023-03-20T08:32:20.268Z,101099.36
2023-03-20T08:34:51.151Z,101101.84
2023-03-20T08:37:22.027Z,101095.23
2023-03-20T08:39:52.757Z,101097.67
2023-03-20T08:42:23.621Z,101096.79
2023-03-20T08:44:54.503Z,101101.80
2023-03-20T08:47:26.364Z,101098.13
2023-03-20T08:49:57.163Z,101096.96
2023-03-20T08:52:28.367Z,101092.65
2023-03-20T08:54:59.144Z,101086.67
2023-03-20T08:57:29.948Z,101083.99
2023-03-20T09:00:01.673Z,101080.73
2023-03-20T09:02:32.556Z,101081.16
2023-03-20T09:05:03.517Z,101075.11
2023-03-20T09:07:34.352Z,101072.74
2023-03-20T09:10:05.761Z,101078.02
2023-03-20T09:12:36.448Z,101078.88
2023-03-20T09:15:08.298Z,101082.06
2023-03-20T09:17:39.122Z,101078.36
2023-03-20T09:20:10.878Z,101074.73
2023-03-20T09:22:43.931Z,101076.17
2023-03-20T09:25:14.930Z,101071.23
2023-03-20T09:27:45.721Z,101069.45
2023-03-20T09:30:17.011Z,101067.79
2023-03-20T09:32:47.843Z,101066.79
2023-03-20T09:35:19.031Z,101061.80
2023-03-20T09:37:49.908Z,101060.87
2023-03-20T09:40:24.199Z,101052.29
2023-03-20T09:42:56.693Z,101049.57
2023-03-20T09:45:29.988Z,101047.33
2023-03-20T09:48:01.880Z,101044.13
2023-03-20T09:50:35.145Z,101040.89
2023-03-20T09:53:07.747Z,101036.11
2023-03-20T09:55:39.672Z,101035.74
2023-03-20T09:58:13.724Z,101034.29
2023-03-20T10:00:47.088Z,101028.17
2023-03-20T10:03:22.734Z,101030.66
2023-03-20T10:05:56.115Z,101031.27
2023-03-20T10:08:28.919Z,101024.30
2023-03-20T10:11:02.925Z,101017.95
2023-03-20T10:13:40.341Z,101013.31
2023-03-20T10:16:14.369Z,101006.48
2023-03-20T10:18:47.983Z,100995.75
2023-03-20T10:21:19.694Z,100993.80
2023-03-20T10:23:51.833Z,100989.05
2023-03-20T10:26:23.305Z,100987.16
2023-03-20T10:28:55.856Z,100984.58
2023-03-20T10:31:33.430Z,100980.64
2023-03-20T10:34:10.510Z,100985.40
2023-03-20T10:36:44.798Z,100984.25
2023-03-20T10:45:47.165Z,100975.77
2023-03-20T10:48:21.804Z,100977.20
2023-03-20T10:50:53.872Z,100977.39
2023-03-20T10:53:30.696Z,100973.49
2023-03-20T10:56:02.434Z,100971.54
2023-03-20T10:58:33.537Z,100970.81
2023-03-20T11:01:04.772Z,100970.23
2023-03-20T11:03:39.638Z,100965.02
2023-03-20T11:06:14.069Z,100958.34
2023-03-20T11:08:45.566Z,100954.46
2023-03-20T11:11:16.867Z,100952.77
2023-03-20T11:13:49.606Z,100946.95
2023-03-20T11:16:22.301Z,100944.02
2023-03-20T11:18:54.226Z,100938.81
2023-03-20T11:21:26.552Z,100937.36
2023-03-20T11:23:57.377Z,100929.17
2023-03-20T11:26:34.351Z,100927.27
2023-03-20T11:29:05.227Z,100923.36
2023-03-20T11:31:37.172Z,100923.30
2023-03-20T11:34:12.889Z,100924.04
2023-03-20T11:36:50.816Z,100921.73
2023-03-20T11:39:28.042Z,100913.34
2023-03-20T11:41:59.312Z,100912.98
2023-03-20T11:44:30.530Z,100907.33
2023-03-20T11:47:03.683Z,100904.30
2023-03-20T11:49:35.066Z,100900.13
2023-03-20T11:52:13.615Z,100900.59
2023-03-20T11:54:48.881Z,100898.17
2023-03-20T11:57:29.975Z,100892.91
2023-03-20T12:00:00.813Z,100884.52
2023-03-20T12:02:31.722Z,100880.65
2023-03-20T12:05:02.691Z,100875.07
2023-03-20T12:07:34.264Z,100874.48
2023-03-20T12:10:06.430Z,100871.63
2023-03-20T12:12:38.006Z,100873.99
2023-03-20T12:15:11.911Z,100870.58
2023-03-20T12:17:44.009Z,100868.58
2023-03-20T12:20:18.308Z,100868.34
2023-03-20T12:22:51.829Z,100863.09
2023-03-20T12:25:23.873Z,100860.46
2023-03-20T12:27:57.454Z,100857.48
2023-03-20T12:30:29.871Z,100854.48
2023-03-20T12:33:02.352Z,100854.05
2023-03-20T12:35:33.725Z,100848.52
2023-03-20T12:38:05.196Z,100841.75
2023-03-20T12:40:38.448Z,100838.36
2023-03-20T12:43:12.810Z,100835.65
2023-03-20T12:45:46.483Z,100829.71
2023-03-20T12:48:21.022Z,100822.13
2023-03-20T12:50:52.749Z,100821.80
2023-03-20T12:53:39.815Z,100824.08
2023-03-20T12:56:15.631Z,100815.71
2023-03-20T12:58:46.442Z,100816.10
2023-03-20T13:01:19.355Z,100814.88
2023-03-20T13:04:00.372Z,100811.00
2023-03-20T13:06:36.024Z,100804.55
2023-03-20T13:09:15.492Z,100802.77
2023-03-20T13:11:47.500Z,100798.86
2023-03-20T13:14:19.582Z,100797.48
2023-03-20T13:16:52.795Z,100795.08
2023-03-20T13:19:25.809Z,100793.40
2023-03-20T13:21:57.849Z,100789.57
2023-03-20T13:24:40.284Z,100783.28
2023-03-20T13:27:14.685Z,100784.73
2023-03-20T13:29:48.550Z,100787.38
2023-03-20T13:32:22.075Z,100788.48
2023-03-20T13:34:59.453Z,100786.16
2023-03-20T13:37:33.559Z,100781.63
2023-03-20T13:40:07.125Z,100780.21
2023-03-20T13:42:38.872Z,100777.85
2023-03-20T13:45:13.341Z,100775.23
2023-03-20T13:47:44.041Z,100771.17
2023-03-20T13:50:21.068Z,100773.96
2023-03-20T13:52:53.855Z,100771.42
2023-03-20T13:55:25.541Z,100767.77
2023-03-20T13:57:59.684Z,100765.05
2023-03-20T14:00:32.392Z,100765.58
2023-03-20T14:03:07.184Z,100767.73
2023-03-20T14:05:39.105Z,100765.13
2023-03-20T14:08:26.115Z,100761.70
2023-03-20T14:11:06.416Z,100761.87
2023-03-20T14:13:37.195Z,100767.61
2023-03-20T14:16:09.346Z,100761.14
2023-03-20T14:18:40.063Z,100760.71
2023-03-20T14:21:12.967Z,100757.48
2023-03-20T14:23:47.254Z,100753.68
2023-03-20T14:26:21.849Z,100754.70
2023-03-20T14:28:56.964Z,100753.58
2023-03-20T14:31:30.659Z,100750.69
2023-03-20T14:34:02.557Z,100746.55
2023-03-20T14:36:43.336Z,100743.95
2023-03-20T14:39:15.714Z,100748.92
2023-03-20T14:41:55.344Z,100739.82
2023-03-20T14:44:28.446Z,100736.81
2023-03-20T14:47:01.864Z,100735.78
2023-03-20T14:49:38.057Z,100735.59
2023-03-20T14:52:14.118Z,100731.59
2023-03-20T14:54:45.407Z,100741.02
2023-03-20T14:57:20.414Z,100734.60
2023-03-20T14:59:51.343Z,100730.59
2023-03-20T15:02:27.139Z,100730.54
2023-03-20T15:04:58.545Z,100731.70
2023-03-20T15:07:29.922Z,100733.89
2023-03-20T15:10:03.177Z,100739.80
2023-03-20T15:12:35.871Z,100742.67
2023-03-20T15:15:08.230Z,100743.03
2023-03-20T15:17:39.824Z,100743.56
2023-03-20T15:20:15.264Z,100741.58
2023-03-20T15:22:52.603Z,100739.38
2023-03-20T15:25:24.726Z,100738.19
2023-03-20T15:27:55.784Z,100737.75
2023-03-20T15:30:26.768Z,100732.27
2023-03-20T15:32:57.693Z,100731.42
2023-03-20T15:35:28.620Z,100728.74
2023-03-20T15:37:59.820Z,100729.17
2023-03-20T15:40:47.457Z,100730.86
2023-03-20T15:43:20.922Z,100731.64
2023-03-20T15:46:02.772Z,100731.91
2023-03-20T15:48:41.227Z,100732.02
2023-03-20T15:51:12.336Z,100729.24
2023-03-20T15:53:44.760Z,100725.58
2023-03-20T15:56:19.240Z,100728.67
2023-03-20T15:58:52.435Z,100734.39
2023-03-20T16:01:24.221Z,100738.41
2023-03-20T16:03:55.097Z,100739.98
2023-03-20T16:06:26.736Z,100742.88
2023-03-20T16:09:01.423Z,100741.36
2023-03-20T16:11:39.684Z,100742.14
2023-03-20T16:14:10.851Z,100741.48
2023-03-20T16:16:41.511Z,100741.58
2023-03-20T16:19:12.929Z,100741.00
2023-03-20T16:21:44.773Z,100736.95
2023-03-20T16:24:18.915Z,100740.87
2023-03-20T16:26:51.334Z,100738.81
2023-03-20T16:29:22.997Z,100736.58
2023-03-20T16:31:56.376Z,100743.52
2023-03-20T16:34:28.381Z,100747.88
2023-03-20T16:36:59.743Z,100753.02
2023-03-20T16:39:31.487Z,100751.98
2023-03-20T16:42:12.998Z,100753.14
2023-03-20T16:44:43.840Z,100758.02
2023-03-20T16:47:22.398Z,100756.88
2023-03-20T16:50:06.658Z,100757.77
2023-03-20T16:52:38.952Z,100759.73
2023-03-20T16:55:13.746Z,100756.20
2023-03-20T16:57:45.767Z,100755.95
2023-03-20T17:00:24.424Z,100750.55
2023-03-20T17:02:59.669Z,100752.75
2023-03-20T17:05:37.409Z,100753.63
2023-03-20T17:08:12.440Z,100750.15
2023-03-20T17:10:46.333Z,100750.66
2023-03-20T17:13:17.232Z,100748.83
2023-03-20T17:15:47.972Z,100752.33
2023-03-20T17:18:18.801Z,100757.41
2023-03-20T17:20:49.564Z,100758.99
2023-03-20T17:23:21.941Z,100757.16
2023-03-20T17:25:53.020Z,100751.61
2023-03-20T17:28:25.070Z,100745.73
2023-03-20T17:30:55.986Z,100748.34
2023-03-20T17:33:28.524Z,100751.89
2023-03-20T17:35:59.494Z,100752.00
2023-03-20T17:38:31.696Z,100757.83
2023-03-20T17:41:02.532Z,100758.80
2023-03-20T17:43:33.377Z,100756.20
2023-03-20T17:46:04.299Z,100756.87
2023-03-20T17:48:35.106Z,100757.70
2023-03-20T17:51:07.862Z,100758.45
2023-03-20T17:53:39.051Z,100758.67
2023-03-20T17:56:17.744Z,100760.05
2023-03-20T17:58:48.565Z,100766.45
2023-03-20T18:01:19.777Z,100765.79
2023-03-20T18:03:50.830Z,100764.05
2023-03-20T18:06:23.654Z,100761.98
2023-03-20T18:08:54.511Z,100767.55
2023-03-20T18:11:25.487Z,100768.36
2023-03-20T18:13:56.270Z,100769.14
2023-03-20T18:16:27.559Z,100770.23
2023-03-20T18:19:00.539Z,100771.89
2023-03-20T18:21:31.671Z,100769.11
2023-03-20T18:24:02.642Z,100768.52
2023-03-20T18:26:33.540Z,100767.33
2023-03-20T18:29:04.400Z,100763.66
2023-03-20T18:31:35.299Z,100767.96
2023-03-20T18:34:06.163Z,100772.78
2023-03-20T18:36:37.115Z,100775.27
2023-03-20T18:39:08.047Z,100777.70
2023-03-20T18:41:38.883Z,100782.39
2023-03-20T18:44:09.800Z,100780.63
2023-03-20T18:46:42.489Z,100777.59
2023-03-20T18:49:16.103Z,100782.73
2023-03-20T18:51:47.067Z,100786.30
2023-03-20T18:54:17.911Z,100787.77
2023-03-20T18:56:50.009Z,100790.11
2023-03-20T18:59:20.779Z,100787.73
2023-03-20T19:01:53.148Z,100786.56
2023-03-20T19:04:24.533Z,100783.08
2023-03-20T19:06:55.501Z,100783.90
2023-03-20T19:09:26.426Z,100784.04
2023-03-20T19:11:57.352Z,100783.29
2023-03-20T19:14:28.117Z,100783.02
2023-03-20T19:16:59.031Z,100786.16
2023-03-20T19:19:30.139Z,100786.33
2023-03-20T19:22:01.027Z,100784.39
2023-03-20T19:24:31.893Z,100788.10
2023-03-20T19:27:02.832Z,100788.02
2023-03-20T19:29:33.555Z,100786.79
2023-03-20T19:32:04.576Z,100785.81
2023-03-20T19:37:26.584Z,100788.52
2023-03-20T19:39:57.356Z,100789.36
2023-03-20T19:42:53.036Z,100784.98
2023-03-20T19:45:18.930Z,100784.58
2023-03-20T19:47:49.954Z,100782.76
2023-03-20T19:50:25.594Z,100781.04
2023-03-20T19:52:57.777Z,100784.50
2023-03-20T19:55:28.951Z,100783.96
2023-03-20T19:58:00.788Z,100781.45
2023-03-20T20:00:57.359Z,100784.69
2023-03-20T20:03:24.134Z,100787.20
2023-03-20T20:05:55.124Z,100784.33
2023-03-20T20:08:42.530Z,100782.85
2023-03-20T20:11:15.923Z,100782.27
2023-03-20T20:16:38.018Z,100782.86
2023-03-20T20:19:08.877Z,100783.37
2023-03-20T20:24:30.814Z,100789.92
2023-03-20T20:27:18.395Z,100792.08
2023-03-20T20:29:50.844Z,100796.37
2023-03-20T20:32:22.559Z,100794.16
2023-03-20T20:38:33.759Z,100791.98
2023-03-20T20:40:36.024Z,100791.04
2023-03-20T20:43:10.273Z,100789.99
2023-03-20T20:45:41.842Z,100790.90
2023-03-20T20:48:12.827Z,100785.42
2023-03-20T20:50:46.851Z,100782.90
2023-03-20T20:53:17.739Z,100784.19
2023-03-20T20:55:49.251Z,100782.75
2023-03-20T20:58:20.422Z,100782.55
2023-03-20T21:00:55.453Z,100784.91
2023-03-20T21:03:29.049Z,100787.91
2023-03-20T21:06:04.250Z,100786.95
2023-03-20T21:08:36.785Z,100785.81
2023-03-20T21:11:07.947Z,100781.44
2023-03-20T21:13:38.719Z,100781.65
2023-03-20T21:16:10.246Z,100776.02
2023-03-20T21:18:41.152Z,100775.34
2023-03-20T21:21:12.650Z,100772.85
2023-03-20T21:23:43.512Z,100772.84
2023-03-20T21:26:14.501Z,100766.76
2023-03-20T21:28:45.935Z,100766.33
2023-03-20T21:31:27.294Z,100767.01
2023-03-20T21:33:59.529Z,100769.80
2023-03-20T21:36:30.334Z,100771.17
2023-03-20T21:39:08.267Z,100770.84
2023-03-20T21:41:40.510Z,100769.78
2023-03-20T21:44:17.254Z,100769.98
2023-03-20T21:47:50.902Z,100769.36
2023-03-20T21:53:12.012Z,100769.20
2023-03-20T21:56:13.267Z,100772.57
2023-03-20T22:10:35.403Z,100768.36
2023-03-20T22:13:13.868Z,100762.11
2023-03-20T22:16:16.786Z,100759.48
2023-03-20T22:30:15.298Z,100760.29
2023-03-20T22:38:59.004Z,100764.50
2023-03-20T22:44:47.824Z,100760.41
2023-03-20T22:46:45.947Z,100758.31
2023-03-20T22:49:17.448Z,100756.36
2023-03-20T22:52:05.052Z,100754.26
2023-03-20T22:54:39.246Z,100749.57
2023-03-20T22:57:10.104Z,100749.86
2023-03-20T22:59:41.140Z,100752.20
2023-03-20T23:02:12.092Z,100750.02
2023-03-20T23:04:43.285Z,100750.05
2023-03-20T23:07:14.162Z,100750.68
2023-03-20T23:09:44.962Z,100751.90
2023-03-20T23:12:15.797Z,100754.05
2023-03-20T23:14:46.598Z,100754.08
2023-03-20T23:17:17.585Z,100750.86
2023-03-20T23:19:54.122Z,100748.34
2023-03-20T23:22:30.053Z,100747.94
2023-03-20T23:25:11.599Z,100748.41
2023-03-20T23:27:45.690Z,100753.67
2023-03-20T23:30:17.062Z,100756.17
2023-03-20T23:32:47.805Z,100752.98
2023-03-20T23:35:18.770Z,100749.34
2023-03-20T23:37:49.499Z,100745.95
2023-03-20T23:40:20.474Z,100743.02
2023-03-20T23:42:51.252Z,100743.45
2023-03-20T23:45:22.189Z,100738.88
2023-03-20T23:47:53.008Z,100738.85
2023-03-20T23:50:36.603Z,100744.36
2023-03-20T23:53:20.283Z,100744.33
2023-03-20T23:55:52.212Z,100745.70
2023-03-20T23:58:23.276Z,100744.45
